createdAt,value
2022-09-28T00:01:15.011Z,88.96
2022-09-28T00:03:41.864Z,88.96
2022-09-28T00:06:11.697Z,88.86
2022-09-28T00:08:38.628Z,88.81
2022-09-28T00:11:08.047Z,89.28
2022-09-28T00:13:37.366Z,88.79
2022-09-28T00:16:09.696Z,89.30
2022-09-28T00:18:36.466Z,88.94
2022-09-28T00:21:05.798Z,89.12
2022-09-28T00:23:33.287Z,89.22
2022-09-28T00:26:06.219Z,89.06
2022-09-28T00:28:33.104Z,89.54
2022-09-28T00:30:59.687Z,88.96
2022-09-28T00:33:26.669Z,89.54
2022-09-28T00:35:59.642Z,89.17
2022-09-28T00:38:29.444Z,89.28
2022-09-28T00:40:56.053Z,89.68
2022-09-28T00:43:28.168Z,89.43
2022-09-28T00:46:13.711Z,89.37
2022-09-28T00:48:45.754Z,89.20
2022-09-28T00:51:15.229Z,89.09
2022-09-28T00:53:49.198Z,89.42
2022-09-28T00:56:21.307Z,89.58
2022-09-28T00:58:54.592Z,89.55
2022-09-28T01:01:21.692Z,89.24
2022-09-28T01:03:48.835Z,89.72
2022-09-28T01:06:20.512Z,89.66
2022-09-28T01:08:51.240Z,89.88
2022-09-28T01:11:19.635Z,89.88
2022-09-28T01:13:48.552Z,90.54
2022-09-28T01:16:24.001Z,90.12
2022-09-28T01:19:18.999Z,90.49
2022-09-28T01:22:19.025Z,90.21
2022-09-28T01:24:47.191Z,90.64
2022-09-28T01:27:38.821Z,90.40
2022-09-28T01:30:11.790Z,90.68
2022-09-28T01:32:50.512Z,90.78
2022-09-28T01:35:23.812Z,90.54
2022-09-28T01:38:00.484Z,90.68
2022-09-28T01:40:32.513Z,90.58
2022-09-28T01:43:05.723Z,90.16
2022-09-28T01:45:51.604Z,90.35
2022-09-28T01:48:24.665Z,90.40
2022-09-28T01:50:58.570Z,90.13
2022-09-28T01:53:40.918Z,90.28
2022-09-28T01:56:21.429Z,89.93
2022-09-28T01:58:58.367Z,90.13
2022-09-28T02:01:36.342Z,90.02
2022-09-28T02:04:16.042Z,90.15
2022-09-28T02:06:54.188Z,89.74
2022-09-28T02:09:33.882Z,89.87
2022-09-28T02:12:10.091Z,89.62
2022-09-28T02:14:40.094Z,89.65
2022-09-28T02:17:09.800Z,89.84
2022-09-28T02:19:40.045Z,89.43
2022-09-28T02:22:43.112Z,89.52
2022-09-28T02:25:13.893Z,89.69
2022-09-28T02:27:59.920Z,89.71
2022-09-28T02:30:29.782Z,89.40
2022-09-28T02:33:03.489Z,89.94
2022-09-28T02:35:35.415Z,90.29
2022-09-28T02:38:02.612Z,89.81
2022-09-28T02:40:34.703Z,89.86
2022-09-28T02:43:36.744Z,89.77
2022-09-28T02:46:29.798Z,89.93
2022-09-28T02:49:22.107Z,89.53
2022-09-28T02:52:13.701Z,90.08
2022-09-28T02:54:45.978Z,89.46
2022-09-28T02:57:15.755Z,89.75
2022-09-28T02:59:48.488Z,89.61
2022-09-28T03:02:30.177Z,89.74
2022-09-28T03:05:06.423Z,89.79
2022-09-28T03:07:39.912Z,89.49
2022-09-28T03:10:28.062Z,89.67
2022-09-28T03:12:55.831Z,89.66
2022-09-28T03:15:28.618Z,90.19
2022-09-28T03:17:55.914Z,90.21
2022-09-28T03:20:22.500Z,90.34
2022-09-28T03:23:12.459Z,90.35
2022-09-28T03:25:38.019Z,90.39
2022-09-28T03:28:04.724Z,90.31
2022-09-28T03:30:31.503Z,89.88
2022-09-28T03:33:00.140Z,90.56
2022-09-28T03:35:26.650Z,90.19
2022-09-28T03:37:59.155Z,90.39
2022-09-28T03:40:25.767Z,90.43
2022-09-28T03:42:52.355Z,90.33
2022-09-28T03:45:18.845Z,90.46
2022-09-28T03:47:50.219Z,90.73
2022-09-28T03:50:16.782Z,90.78
2022-09-28T03:52:43.609Z,90.39
2022-09-28T03:55:10.973Z,90.64
2022-09-28T03:57:39.810Z,90.56
2022-09-28T04:00:06.689Z,90.88
2022-09-28T04:02:34.889Z,90.83
2022-09-28T04:05:03.945Z,90.93
2022-09-28T04:07:31.329Z,90.99
2022-09-28T04:09:58.235Z,90.72
2022-09-28T04:12:24.771Z,91.03
2022-09-28T04:14:51.273Z,91.04
2022-09-28T04:17:20.057Z,91.10
2022-09-28T04:19:47.426Z,91.07
2022-09-28T04:22:16.383Z,91.19
2022-09-28T04:24:43.643Z,91.63
2022-09-28T04:27:28.884Z,91.21
2022-09-28T04:29:55.387Z,91.36
2022-09-28T04:32:24.605Z,91.50
2022-09-28T04:34:51.869Z,91.77
2022-09-28T04:37:18.403Z,91.87
2022-09-28T04:39:48.460Z,91.89
2022-09-28T04:42:15.940Z,91.63
2022-09-28T04:44:42.474Z,92.24
2022-09-28T04:47:09.027Z,92.10
2022-09-28T04:49:37.093Z,92.09
2022-09-28T04:52:04.801Z,92.68
2022-09-28T04:54:31.400Z,92.40
2022-09-28T04:56:58.289Z,92.77
2022-09-28T04:59:25.120Z,92.66
2022-09-28T05:01:53.663Z,92.32
2022-09-28T05:04:24.974Z,92.51
2022-09-28T05:06:52.425Z,92.02
2022-09-28T05:09:19.248Z,91.81
2022-09-28T05:11:45.727Z,92.21
2022-09-28T05:14:12.714Z,92.05
2022-09-28T05:16:39.268Z,92.46
2022-09-28T05:19:08.273Z,92.51
2022-09-28T05:21:35.044Z,92.47
2022-09-28T05:24:07.279Z,92.55
2022-09-28T05:26:36.379Z,92.57
2022-09-28T05:29:05.705Z,92.54
2022-09-28T05:31:32.442Z,92.60
2022-09-28T05:34:01.298Z,92.96
2022-09-28T05:36:32.539Z,92.77
2022-09-28T05:39:03.714Z,92.95
2022-09-28T05:41:30.272Z,93.15
2022-09-28T05:43:58.153Z,93.11
2022-09-28T05:46:24.790Z,92.64
2022-09-28T05:48:54.476Z,93.00
2022-09-28T05:51:21.318Z,93.09
2022-09-28T05:53:47.861Z,92.69
2022-09-28T05:56:14.356Z,92.67
2022-09-28T05:58:40.902Z,93.10
2022-09-28T06:01:07.518Z,93.07
2022-09-28T06:03:36.284Z,92.80
2022-09-28T06:06:02.856Z,92.87
2022-09-28T06:08:34.485Z,93.08
2022-09-28T06:11:02.001Z,92.94
2022-09-28T06:13:29.259Z,93.08
2022-09-28T06:15:58.092Z,92.67
2022-09-28T06:18:24.629Z,92.63
2022-09-28T06:20:51.253Z,92.90
2022-09-28T06:23:17.855Z,92.68
2022-09-28T06:25:46.698Z,92.52
2022-09-28T06:28:17.038Z,92.34
2022-09-28T06:30:44.139Z,92.19
2022-09-28T06:33:14.412Z,92.03
2022-09-28T06:35:41.043Z,91.91
2022-09-28T06:38:10.711Z,91.69
2022-09-28T06:40:37.807Z,91.60
2022-09-28T06:43:10.310Z,91.27
2022-09-28T06:45:38.593Z,91.58
2022-09-28T06:48:09.390Z,91.58
2022-09-28T06:50:40.235Z,91.72
2022-09-28T06:53:09.555Z,91.68
2022-09-28T06:55:39.980Z,92.19
2022-09-28T06:58:09.868Z,92.01
2022-09-28T07:00:38.145Z,91.89
2022-09-28T07:03:14.555Z,91.45
2022-09-28T07:05:46.296Z,91.48
2022-09-28T07:08:13.353Z,91.58
2022-09-28T07:10:45.454Z,91.74
2022-09-28T07:13:30.098Z,91.42
2022-09-28T07:16:03.226Z,91.73
2022-09-28T07:18:32.211Z,91.53
2022-09-28T07:20:59.450Z,91.51
2022-09-28T07:23:34.898Z,91.21
2022-09-28T07:26:09.363Z,91.86
2022-09-28T07:28:42.997Z,91.57
2022-09-28T07:31:11.980Z,91.35
2022-09-28T07:33:40.819Z,91.52
2022-09-28T07:36:07.497Z,91.01
2022-09-28T07:38:34.174Z,91.15
2022-09-28T07:41:12.824Z,90.92
2022-09-28T07:43:40.718Z,90.95
2022-09-28T07:46:12.254Z,90.72
2022-09-28T07:48:41.068Z,90.77
2022-09-28T07:51:08.125Z,90.83
2022-09-28T07:53:35.508Z,90.59
2022-09-28T07:56:06.266Z,90.63
2022-09-28T07:58:34.442Z,90.50
2022-09-28T08:01:08.587Z,90.70
2022-09-28T08:03:35.469Z,90.54
2022-09-28T08:06:05.166Z,90.54
2022-09-28T08:08:33.933Z,90.65
2022-09-28T08:11:00.468Z,90.07
2022-09-28T08:13:27.414Z,84.54
2022-09-28T08:15:54.783Z,72.51
2022-09-28T08:18:23.915Z,65.80
2022-09-28T08:21:14.255Z,62.33
2022-09-28T08:23:40.786Z,59.57
2022-09-28T08:26:13.408Z,59.25
2022-09-28T08:28:43.215Z,58.55
2022-09-28T08:31:10.031Z,60.02
2022-09-28T08:33:39.022Z,57.72
2022-09-28T08:36:06.150Z,56.84
2022-09-28T08:38:32.824Z,59.13
2022-09-28T08:41:09.859Z,60.21
2022-09-28T08:44:03.904Z,59.14
2022-09-28T08:46:42.315Z,57.70
2022-09-28T08:49:30.874Z,59.28
2022-09-28T08:52:05.872Z,59.78
2022-09-28T08:54:39.106Z,59.60
2022-09-28T08:57:14.071Z,60.61
2022-09-28T08:59:57.142Z,61.47
2022-09-28T09:02:29.472Z,60.62
2022-09-28T09:04:57.987Z,61.39
2022-09-28T09:07:57.340Z,61.80
2022-09-28T09:10:47.936Z,62.64
2022-09-28T09:13:30.732Z,62.91
2022-09-28T09:15:57.186Z,63.76
2022-09-28T09:18:44.993Z,64.82
2022-09-28T09:21:25.680Z,65.04
2022-09-28T09:24:03.941Z,66.23
2022-09-28T09:26:40.550Z,67.51
2022-09-28T09:29:36.571Z,67.60
2022-09-28T09:32:21.465Z,66.62
2022-09-28T09:35:24.449Z,68.42
2022-09-28T09:38:02.687Z,69.18
2022-09-28T09:40:41.933Z,70.98
2022-09-28T09:43:31.665Z,70.36
2022-09-28T09:46:15.716Z,69.70
2022-09-28T09:49:00.474Z,70.64
2022-09-28T09:51:45.339Z,70.76
2022-09-28T09:54:26.781Z,71.47
2022-09-28T09:57:05.671Z,72.14
2022-09-28T09:59:39.923Z,72.70
2022-09-28T10:02:21.749Z,72.84
2022-09-28T10:04:51.724Z,72.61
2022-09-28T10:07:27.789Z,71.56
2022-09-28T10:10:01.427Z,70.64
2022-09-28T10:12:31.569Z,69.22
2022-09-28T10:15:02.036Z,69.08
2022-09-28T10:17:28.575Z,68.60
2022-09-28T10:19:56.948Z,68.21
2022-09-28T10:22:26.213Z,68.82
2022-09-28T10:24:57.600Z,68.61
2022-09-28T10:27:31.890Z,68.26
2022-09-28T10:30:09.342Z,68.54
2022-09-28T10:32:44.624Z,69.23
2022-09-28T10:35:16.988Z,69.36
2022-09-28T10:37:55.798Z,69.50
2022-09-28T10:40:30.222Z,69.27
2022-09-28T10:43:06.492Z,68.53
2022-09-28T10:45:37.121Z,68.42
2022-09-28T10:48:19.793Z,68.21
2022-09-28T10:51:09.698Z,67.77
2022-09-28T10:53:37.266Z,67.03
2022-09-28T10:56:06.079Z,66.57
2022-09-28T10:58:42.036Z,67.06
2022-09-28T11:01:18.718Z,67.32
2022-09-28T11:04:00.752Z,67.01
2022-09-28T11:06:30.767Z,66.49
2022-09-28T11:09:03.479Z,66.82
2022-09-28T11:11:31.395Z,67.70
2022-09-28T11:14:01.246Z,68.59
2022-09-28T11:16:33.205Z,68.90
2022-09-28T11:19:24.353Z,68.39
2022-09-28T11:21:55.663Z,68.35
2022-09-28T11:24:25.466Z,68.13
2022-09-28T11:26:57.050Z,67.73
2022-09-28T11:29:34.714Z,67.91
2022-09-28T11:32:03.678Z,68.07
2022-09-28T11:34:59.709Z,68.84
2022-09-28T11:37:58.947Z,68.86
2022-09-28T11:40:31.482Z,68.51
2022-09-28T11:43:18.512Z,67.96
2022-09-28T11:46:03.787Z,67.48
2022-09-28T11:48:42.371Z,66.89
2022-09-28T11:51:17.819Z,66.28
2022-09-28T11:53:52.168Z,65.70
2022-09-28T11:56:32.778Z,66.04
2022-09-28T11:59:08.605Z,65.84
2022-09-28T12:01:42.529Z,65.19
2022-09-28T12:04:32.437Z,64.44
2022-09-28T12:07:16.478Z,63.27
2022-09-28T12:09:54.730Z,62.54
2022-09-28T12:12:32.646Z,62.12
2022-09-28T12:15:04.539Z,61.73
2022-09-28T12:17:39.419Z,62.04
2022-09-28T12:20:42.121Z,63.08
2022-09-28T12:23:14.508Z,62.72
2022-09-28T12:25:46.786Z,62.91
2022-09-28T12:28:31.573Z,62.97
2022-09-28T12:31:11.676Z,62.59
2022-09-28T12:33:39.334Z,62.68
2022-09-28T12:36:26.224Z,62.79
2022-09-28T12:39:22.006Z,62.06
2022-09-28T12:42:16.545Z,62.05
2022-09-28T12:45:04.697Z,61.11
2022-09-28T12:47:40.277Z,60.04
2022-09-28T12:50:39.630Z,59.12
2022-09-28T12:53:27.215Z,58.70
2022-09-28T12:56:01.539Z,58.10
2022-09-28T12:59:01.147Z,58.10
2022-09-28T13:01:46.045Z,58.67
2022-09-28T13:04:18.485Z,59.30
2022-09-28T13:07:08.269Z,59.77
2022-09-28T13:09:44.949Z,59.99
2022-09-28T13:12:25.270Z,59.66
2022-09-28T13:15:16.272Z,59.30
2022-09-28T13:17:51.826Z,59.50
2022-09-28T13:20:32.624Z,59.41
2022-09-28T13:23:23.733Z,61.15
2022-09-28T13:26:23.715Z,62.26
2022-09-28T13:28:54.785Z,62.95
2022-09-28T13:31:31.766Z,63.46
2022-09-28T13:34:03.679Z,63.43
2022-09-28T13:36:32.755Z,63.35
2022-09-28T13:39:00.781Z,63.40
2022-09-28T13:41:37.397Z,63.47
2022-09-28T13:44:13.116Z,63.35
2022-09-28T13:46:48.149Z,63.72
2022-09-28T13:49:45.510Z,63.78
2022-09-28T13:52:49.777Z,64.51
2022-09-28T13:55:32.951Z,64.33
2022-09-28T13:58:15.648Z,64.48
2022-09-28T14:00:51.559Z,64.67
2022-09-28T14:03:43.003Z,64.98
2022-09-28T14:06:21.702Z,65.38
2022-09-28T14:09:13.112Z,65.26
2022-09-28T14:11:59.374Z,64.99
2022-09-28T14:14:31.267Z,64.68
2022-09-28T14:17:19.751Z,64.73
2022-09-28T14:19:52.655Z,64.22
2022-09-28T14:22:34.804Z,64.22
2022-09-28T14:25:07.060Z,63.59
2022-09-28T14:28:01.471Z,63.25
2022-09-28T14:30:48.562Z,63.05
2022-09-28T14:33:21.369Z,63.08
2022-09-28T14:35:56.526Z,62.70
2022-09-28T14:38:49.593Z,63.03
2022-09-28T14:41:16.265Z,62.24
2022-09-28T14:43:45.729Z,62.59
2022-09-28T14:46:15.350Z,63.17
2022-09-28T14:48:51.145Z,63.50
2022-09-28T14:51:26.919Z,64.06
2022-09-28T14:53:54.991Z,64.41
2022-09-28T14:56:30.441Z,64.22
2022-09-28T14:58:59.526Z,64.67
2022-09-28T15:01:26.205Z,64.63
2022-09-28T15:03:59.241Z,64.30
2022-09-28T15:06:28.951Z,64.53
2022-09-28T15:08:55.422Z,64.82
2022-09-28T15:11:24.433Z,64.87
2022-09-28T15:14:07.099Z,64.63
2022-09-28T15:16:33.763Z,64.43
2022-09-28T15:19:08.029Z,64.09
2022-09-28T15:21:39.497Z,63.71
2022-09-28T15:24:45.168Z,63.54
2022-09-28T15:27:18.937Z,63.04
2022-09-28T15:30:02.697Z,63.30
2022-09-28T15:32:31.711Z,63.20
2022-09-28T15:35:11.802Z,63.31
2022-09-28T15:37:40.681Z,63.42
2022-09-28T15:40:15.531Z,62.87
2022-09-28T15:42:45.302Z,62.91
2022-09-28T15:45:14.651Z,62.93
2022-09-28T15:47:43.613Z,63.12
2022-09-28T15:50:29.897Z,63.61
2022-09-28T15:53:04.207Z,64.08
2022-09-28T15:55:34.587Z,64.59
2022-09-28T15:58:19.672Z,64.84
2022-09-28T16:00:48.349Z,65.13
2022-09-28T16:03:17.762Z,65.21
2022-09-28T16:05:47.148Z,65.67
2022-09-28T16:08:25.208Z,66.04
2022-09-28T16:11:31.897Z,66.06
2022-09-28T16:14:21.531Z,66.09
2022-09-28T16:16:52.470Z,65.73
2022-09-28T16:19:32.075Z,65.56
2022-09-28T16:22:03.409Z,65.43
2022-09-28T16:24:38.829Z,65.36
2022-09-28T16:27:25.044Z,65.22
2022-09-28T16:30:27.333Z,65.29
2022-09-28T16:33:08.228Z,65.09
2022-09-28T16:35:41.038Z,64.72
2022-09-28T16:38:14.320Z,64.79
2022-09-28T16:40:43.415Z,64.84
2022-09-28T16:43:26.655Z,65.20
2022-09-28T16:45:58.013Z,65.03
2022-09-28T16:48:30.311Z,65.24
2022-09-28T16:50:58.132Z,65.82
2022-09-28T16:53:45.646Z,66.03
2022-09-28T16:56:13.442Z,66.48
2022-09-28T16:58:42.518Z,67.17
2022-09-28T17:01:14.114Z,67.38
2022-09-28T17:03:46.582Z,68.08
2022-09-28T17:06:16.710Z,68.26
2022-09-28T17:08:43.326Z,68.79
2022-09-28T17:11:24.888Z,69.02
2022-09-28T17:13:58.774Z,69.02
2022-09-28T17:17:02.394Z,69.37
2022-09-28T17:19:23.807Z,69.33
2022-09-28T17:21:52.316Z,69.61
2022-09-28T17:24:21.935Z,69.67
2022-09-28T17:26:53.464Z,69.80
2022-09-28T17:29:22.397Z,70.12
2022-09-28T17:31:48.980Z,70.21
2022-09-28T17:34:19.514Z,70.28
2022-09-28T17:36:46.852Z,70.46
2022-09-28T17:39:15.944Z,70.41
2022-09-28T17:41:45.634Z,70.52
2022-09-28T17:44:18.070Z,70.77
2022-09-28T17:46:48.528Z,70.78
2022-09-28T17:49:16.190Z,70.80
2022-09-28T17:51:42.688Z,70.83
2022-09-28T17:54:09.987Z,70.83
2022-09-28T17:56:39.530Z,71.11
2022-09-28T17:59:10.407Z,71.02
2022-09-28T18:01:39.226Z,71.51
2022-09-28T18:04:08.156Z,71.40
2022-09-28T18:06:40.080Z,71.72
2022-09-28T18:09:08.580Z,71.90
2022-09-28T18:11:42.311Z,72.18
2022-09-28T18:14:11.418Z,72.29
2022-09-28T18:16:38.081Z,72.76
2022-09-28T18:19:06.876Z,73.01
2022-09-28T18:21:35.968Z,73.12
2022-09-28T18:24:02.539Z,73.46
2022-09-28T18:26:29.133Z,73.72
2022-09-28T18:28:55.684Z,73.98
2022-09-28T18:31:22.711Z,74.37
2022-09-28T18:33:51.478Z,74.41
2022-09-28T18:36:20.298Z,74.42
2022-09-28T18:38:46.853Z,74.43
2022-09-28T18:41:15.747Z,74.73
2022-09-28T18:43:48.953Z,74.69
2022-09-28T18:46:18.054Z,74.75
2022-09-28T18:48:47.671Z,75.18
2022-09-28T18:51:14.297Z,75.27
2022-09-28T18:53:41.008Z,75.42
2022-09-28T18:56:09.306Z,75.93
2022-09-28T18:58:39.762Z,75.46
2022-09-28T19:04:06.532Z,75.89
2022-09-28T19:06:37.549Z,76.12
2022-09-28T19:09:06.810Z,76.15
2022-09-28T19:11:33.643Z,76.45
2022-09-28T19:14:03.667Z,76.29
2022-09-28T19:16:33.813Z,76.67
2022-09-28T19:19:03.743Z,76.47
2022-09-28T19:21:30.911Z,76.75
2022-09-28T19:24:00.990Z,76.47
2022-09-28T19:26:29.370Z,76.80
2022-09-28T19:28:57.778Z,77.05
2022-09-28T19:31:24.998Z,76.92
2022-09-28T19:33:52.040Z,77.11
2022-09-28T19:36:23.522Z,77.52
2022-09-28T19:38:52.431Z,77.47
2022-09-28T19:41:43.349Z,77.56
2022-09-28T19:44:15.768Z,77.78
2022-09-28T19:46:42.952Z,77.64
2022-09-28T19:49:22.771Z,77.73
2022-09-28T19:52:11.532Z,77.99
2022-09-28T19:54:38.135Z,77.95
2022-09-28T19:57:08.908Z,78.00
2022-09-28T19:59:39.075Z,78.02
2022-09-28T20:02:07.537Z,78.19
2022-09-28T20:04:36.381Z,78.28
2022-09-28T20:07:03.720Z,78.49
2022-09-28T20:09:30.314Z,78.28
2022-09-28T20:11:59.060Z,78.36
2022-09-28T20:14:27.556Z,78.71
2022-09-28T20:16:58.540Z,78.69
2022-09-28T20:19:25.065Z,78.78
2022-09-28T20:21:51.686Z,78.86
2022-09-28T20:24:18.482Z,78.94
2022-09-28T20:26:46.007Z,79.38
2022-09-28T20:29:12.926Z,79.29
2022-09-28T20:31:39.923Z,79.05
2022-09-28T20:34:07.143Z,79.67
2022-09-28T20:36:35.957Z,79.48
2022-09-28T20:39:03.382Z,79.51
2022-09-28T20:41:35.732Z,79.71
2022-09-28T20:44:06.867Z,79.64
2022-09-28T20:46:37.369Z,79.90
2022-09-28T20:49:07.729Z,80.14
2022-09-28T20:51:34.330Z,80.16
2022-09-28T20:54:00.919Z,79.80
2022-09-28T20:56:37.535Z,79.96
2022-09-28T20:59:06.632Z,80.09
2022-09-28T21:01:33.320Z,80.20
2022-09-28T21:04:02.011Z,80.37
2022-09-28T21:06:34.631Z,80.26
2022-09-28T21:09:01.468Z,80.13
2022-09-28T21:11:29.725Z,80.26
2022-09-28T21:14:06.405Z,80.66
2022-09-28T21:16:34.881Z,80.14
2022-09-28T21:19:01.787Z,80.68
2022-09-28T21:21:28.424Z,80.54
2022-09-28T21:23:56.476Z,80.43
2022-09-28T21:26:29.933Z,80.69
2022-09-28T21:29:05.608Z,80.48
2022-09-28T21:31:47.477Z,80.46
2022-09-28T21:34:24.255Z,80.63
2022-09-28T21:36:56.269Z,80.65
2022-09-28T21:39:23.071Z,80.79
2022-09-28T21:41:52.000Z,80.66
2022-09-28T21:44:18.730Z,81.27
2022-09-28T21:46:45.491Z,80.91
2022-09-28T21:49:12.658Z,81.50
2022-09-28T21:51:39.216Z,81.51
2022-09-28T21:54:08.529Z,81.53
2022-09-28T21:56:35.051Z,81.33
2022-09-28T21:59:03.927Z,81.18
2022-09-28T22:01:31.745Z,81.67
2022-09-28T22:03:58.577Z,81.86
2022-09-28T22:06:28.228Z,81.83
2022-09-28T22:08:55.178Z,81.68
2022-09-28T22:11:24.395Z,81.89
2022-09-28T22:13:56.310Z,81.79
2022-09-28T22:16:25.501Z,81.68
2022-09-28T22:18:54.308Z,81.91
2022-09-28T22:21:23.596Z,82.19
2022-09-28T22:23:51.124Z,82.15
2022-09-28T22:26:25.727Z,82.30
2022-09-28T22:29:01.008Z,82.23
2022-09-28T22:31:34.409Z,82.39
2022-09-28T22:34:01.473Z,82.24
2022-09-28T22:36:28.938Z,82.40
2022-09-28T22:38:59.358Z,82.32
2022-09-28T22:41:26.210Z,82.17
2022-09-28T22:43:53.782Z,82.37
2022-09-28T22:46:22.911Z,82.57
2022-09-28T22:48:52.773Z,82.88
2022-09-28T22:51:19.855Z,82.76
2022-09-28T22:53:47.126Z,82.69
2022-09-28T22:56:18.978Z,82.90
2022-09-28T22:58:46.788Z,82.85
2022-09-28T23:01:18.528Z,82.90
2022-09-28T23:03:45.654Z,82.78
2022-09-28T23:06:16.591Z,83.03
2022-09-28T23:08:47.390Z,83.26
2022-09-28T23:11:16.683Z,82.83
2022-09-28T23:13:49.456Z,83.08
2022-09-28T23:16:18.857Z,83.26
2022-09-28T23:18:49.250Z,82.91
2022-09-28T23:21:20.221Z,83.20
2022-09-28T23:23:52.732Z,83.38
2022-09-28T23:26:23.363Z,83.40
2022-09-28T23:28:50.585Z,83.08
2022-09-28T23:31:23.345Z,83.47
2022-09-28T23:33:50.544Z,83.68
2022-09-28T23:36:17.943Z,83.67
2022-09-28T23:38:44.574Z,83.38
2022-09-28T23:41:11.351Z,83.65
2022-09-28T23:43:42.698Z,83.42
2022-09-28T23:46:09.404Z,83.80
2022-09-28T23:48:35.969Z,83.87
2022-09-28T23:51:02.505Z,83.82
2022-09-28T23:53:29.754Z,83.70
2022-09-28T23:55:56.247Z,84.05
2022-09-28T23:58:22.790Z,83.91
